sensor_id;sensor_type;location;lat;lon;timestamp;P1;durP1;ratioP1;P2;durP2;ratioP2
53797;SDS011;39707;45.384;9.300;2022-08-01T00:01:24;5.18;;;2.47;;
53797;SDS011;39707;45.384;9.300;2022-08-01T00:03:50;5.30;;;2.63;;
53797;SDS011;39707;45.384;9.300;2022-08-01T00:06:16;2.78;;;2.05;;
53797;SDS011;39707;45.384;9.300;2022-08-01T00:08:42;3.10;;;2.15;;
53797;SDS011;39707;45.384;9.300;2022-08-01T00:11:08;3.20;;;1.90;;
53797;SDS011;39707;45.384;9.300;2022-08-01T00:13:34;2.35;;;1.95;;
53797;SDS011;39707;45.384;9.300;2022-08-01T00:16:00;5.70;;;2.33;;
53797;SDS011;39707;45.384;9.300;2022-08-01T00:18:26;1.98;;;1.55;;
53797;SDS011;39707;45.384;9.300;2022-08-01T00:20:53;2.00;;;1.60;;
53797;SDS011;39707;45.384;9.300;2022-08-01T00:23:19;6.63;;;2.72;;
53797;SDS011;39707;45.384;9.300;2022-08-01T00:25:45;8.80;;;2.83;;
53797;SDS011;39707;45.384;9.300;2022-08-01T00:28:11;3.97;;;3.00;;
53797;SDS011;39707;45.384;9.300;2022-08-01T00:30:38;3.33;;;2.58;;
53797;SDS011;39707;45.384;9.300;2022-08-01T00:33:04;2.67;;;2.08;;
53797;SDS011;39707;45.384;9.300;2022-08-01T00:35:30;5.25;;;2.38;;
53797;SDS011;39707;45.384;9.300;2022-08-01T00:37:56;4.45;;;2.20;;
53797;SDS011;39707;45.384;9.300;2022-08-01T00:40:22;4.97;;;2.55;;
53797;SDS011;39707;45.384;9.300;2022-08-01T00:42:48;7.65;;;3.67;;
53797;SDS011;39707;45.384;9.300;2022-08-01T00:45:14;7.57;;;4.60;;
53797;SDS011;39707;45.384;9.300;2022-08-01T00:47:40;4.85;;;3.40;;
53797;SDS011;39707;45.384;9.300;2022-08-01T00:50:06;4.70;;;2.85;;
53797;SDS011;39707;45.384;9.300;2022-08-01T00:52:33;4.90;;;2.17;;
53797;SDS011;39707;45.384;9.300;2022-08-01T00:54:59;3.33;;;2.17;;
53797;SDS011;39707;45.384;9.300;2022-08-01T00:57:26;6.65;;;1.77;;
53797;SDS011;39707;45.384;9.300;2022-08-01T00:59:52;5.28;;;2.53;;
53797;SDS011;39707;45.384;9.300;2022-08-01T01:02:18;2.58;;;2.20;;
53797;SDS011;39707;45.384;9.300;2022-08-01T01:04:44;2.58;;;2.10;;
53797;SDS011;39707;45.384;9.300;2022-08-01T01:14:54;3.72;;;2.13;;
53797;SDS011;39707;45.384;9.300;2022-08-01T01:17:23;2.40;;;1.88;;
53797;SDS011;39707;45.384;9.300;2022-08-01T01:19:51;2.53;;;1.48;;
53797;SDS011;39707;45.384;9.300;2022-08-01T01:29:53;1.88;;;1.58;;
53797;SDS011;39707;45.384;9.300;2022-08-01T01:32:35;5.32;;;2.25;;
53797;SDS011;39707;45.384;9.300;2022-08-01T01:35:03;3.92;;;1.85;;
53797;SDS011;39707;45.384;9.300;2022-08-01T01:37:31;4.75;;;2.00;;
53797;SDS011;39707;45.384;9.300;2022-08-01T01:39:57;3.35;;;2.08;;
53797;SDS011;39707;45.384;9.300;2022-08-01T01:42:24;2.47;;;1.45;;
53797;SDS011;39707;45.384;9.300;2022-08-01T01:44:51;2.47;;;2.05;;
53797;SDS011;39707;45.384;9.300;2022-08-01T01:47:17;2.20;;;1.90;;
53797;SDS011;39707;45.384;9.300;2022-08-01T01:49:44;3.35;;;2.10;;
53797;SDS011;39707;45.384;9.300;2022-08-01T01:52:10;1.75;;;1.35;;
53797;SDS011;39707;45.384;9.300;2022-08-01T01:54:44;2.25;;;1.50;;
53797;SDS011;39707;45.384;9.300;2022-08-01T01:57:11;3.72;;;1.67;;
53797;SDS011;39707;45.384;9.300;2022-08-01T01:59:37;3.08;;;2.05;;
53797;SDS011;39707;45.384;9.300;2022-08-01T02:02:05;3.40;;;1.40;;
53797;SDS011;39707;45.384;9.300;2022-08-01T02:06:58;4.05;;;1.50;;
53797;SDS011;39707;45.384;9.300;2022-08-01T02:09:24;1.30;;;1.20;;
53797;SDS011;39707;45.384;9.300;2022-08-01T02:11:52;4.47;;;1.55;;
53797;SDS011;39707;45.384;9.300;2022-08-01T02:14:18;2.13;;;1.40;;
53797;SDS011;39707;45.384;9.300;2022-08-01T02:16:47;1.90;;;1.48;;
53797;SDS011;39707;45.384;9.300;2022-08-01T02:19:13;0.90;;;0.90;;
53797;SDS011;39707;45.384;9.300;2022-08-01T02:21:41;1.37;;;1.13;;
53797;SDS011;39707;45.384;9.300;2022-08-01T02:24:14;1.20;;;0.80;;
53797;SDS011;39707;45.384;9.300;2022-08-01T02:26:42;4.40;;;1.42;;
53797;SDS011;39707;45.384;9.300;2022-08-01T02:29:10;3.75;;;1.38;;
53797;SDS011;39707;45.384;9.300;2022-08-01T02:31:39;2.28;;;1.40;;
53797;SDS011;39707;45.384;9.300;2022-08-01T02:34:09;2.15;;;1.92;;
53797;SDS011;39707;45.384;9.300;2022-08-01T02:36:38;1.42;;;1.10;;
53797;SDS011;39707;45.384;9.300;2022-08-01T02:39:08;2.30;;;1.33;;
53797;SDS011;39707;45.384;9.300;2022-08-01T02:41:36;1.60;;;1.35;;
53797;SDS011;39707;45.384;9.300;2022-08-01T02:44:04;1.95;;;1.20;;
53797;SDS011;39707;45.384;9.300;2022-08-01T02:46:52;3.30;;;1.52;;
53797;SDS011;39707;45.384;9.300;2022-08-01T02:49:17;1.45;;;1.00;;
53797;SDS011;39707;45.384;9.300;2022-08-01T02:51:44;2.08;;;1.40;;
53797;SDS011;39707;45.384;9.300;2022-08-01T02:56:38;2.08;;;1.13;;
53797;SDS011;39707;45.384;9.300;2022-08-01T02:59:06;1.90;;;1.50;;
53797;SDS011;39707;45.384;9.300;2022-08-01T03:01:36;1.83;;;1.45;;
53797;SDS011;39707;45.384;9.300;2022-08-01T03:04:05;1.50;;;1.40;;
53797;SDS011;39707;45.384;9.300;2022-08-01T03:06:32;1.48;;;1.08;;
53797;SDS011;39707;45.384;9.300;2022-08-01T03:09:03;4.18;;;1.33;;
53797;SDS011;39707;45.384;9.300;2022-08-01T03:11:29;1.85;;;1.15;;
53797;SDS011;39707;45.384;9.300;2022-08-01T03:13:56;1.25;;;1.10;;
53797;SDS011;39707;45.384;9.300;2022-08-01T03:16:24;1.23;;;1.05;;
53797;SDS011;39707;45.384;9.300;2022-08-01T03:18:52;0.98;;;0.93;;
53797;SDS011;39707;45.384;9.300;2022-08-01T03:21:19;2.45;;;1.55;;
53797;SDS011;39707;45.384;9.300;2022-08-01T03:23:46;2.10;;;1.77;;
53797;SDS011;39707;45.384;9.300;2022-08-01T03:26:13;4.78;;;1.65;;
53797;SDS011;39707;45.384;9.300;2022-08-01T03:28:39;2.63;;;1.70;;
53797;SDS011;39707;45.384;9.300;2022-08-01T03:33:33;0.95;;;0.85;;
53797;SDS011;39707;45.384;9.300;2022-08-01T03:35:59;2.15;;;1.27;;
53797;SDS011;39707;45.384;9.300;2022-08-01T03:38:25;1.10;;;0.83;;
53797;SDS011;39707;45.384;9.300;2022-08-01T03:40:56;0.68;;;0.57;;
53797;SDS011;39707;45.384;9.300;2022-08-01T03:43:34;1.02;;;0.98;;
53797;SDS011;39707;45.384;9.300;2022-08-01T03:48:29;1.42;;;0.90;;
53797;SDS011;39707;45.384;9.300;2022-08-01T03:50:59;1.55;;;1.13;;
53797;SDS011;39707;45.384;9.300;2022-08-01T03:53:26;2.25;;;0.93;;
53797;SDS011;39707;45.384;9.300;2022-08-01T03:55:54;2.15;;;1.10;;
53797;SDS011;39707;45.384;9.300;2022-08-01T03:58:21;1.10;;;0.98;;
53797;SDS011;39707;45.384;9.300;2022-08-01T04:00:47;1.15;;;0.93;;
53797;SDS011;39707;45.384;9.300;2022-08-01T04:03:13;0.90;;;0.85;;
53797;SDS011;39707;45.384;9.300;2022-08-01T04:05:40;2.25;;;1.10;;
53797;SDS011;39707;45.384;9.300;2022-08-01T04:08:07;1.33;;;1.15;;
53797;SDS011;39707;45.384;9.300;2022-08-01T04:10:33;0.93;;;0.70;;
53797;SDS011;39707;45.384;9.300;2022-08-01T04:12:59;4.18;;;1.67;;
53797;SDS011;39707;45.384;9.300;2022-08-01T04:15:25;1.05;;;0.95;;
53797;SDS011;39707;45.384;9.300;2022-08-01T04:17:51;1.98;;;1.08;;
53797;SDS011;39707;45.384;9.300;2022-08-01T04:22:46;1.92;;;1.42;;
53797;SDS011;39707;45.384;9.300;2022-08-01T04:27:38;0.50;;;0.50;;
53797;SDS011;39707;45.384;9.300;2022-08-01T04:30:06;0.60;;;0.60;;
53797;SDS011;39707;45.384;9.300;2022-08-01T04:32:38;1.10;;;1.00;;
53797;SDS011;39707;45.384;9.300;2022-08-01T04:35:06;1.23;;;1.13;;
53797;SDS011;39707;45.384;9.300;2022-08-01T04:37:33;0.73;;;0.70;;
53797;SDS011;39707;45.384;9.300;2022-08-01T04:40:02;2.17;;;1.25;;
53797;SDS011;39707;45.384;9.300;2022-08-01T04:42:29;1.90;;;0.82;;
53797;SDS011;39707;45.384;9.300;2022-08-01T04:44:55;8.52;;;1.08;;
53797;SDS011;39707;45.384;9.300;2022-08-01T04:47:21;1.35;;;1.10;;
53797;SDS011;39707;45.384;9.300;2022-08-01T04:49:48;2.13;;;1.27;;
53797;SDS011;39707;45.384;9.300;2022-08-01T04:52:14;0.57;;;0.55;;
53797;SDS011;39707;45.384;9.300;2022-08-01T04:54:42;0.90;;;0.80;;
53797;SDS011;39707;45.384;9.300;2022-08-01T04:57:09;1.10;;;1.00;;
53797;SDS011;39707;45.384;9.300;2022-08-01T04:59:35;0.98;;;0.88;;
53797;SDS011;39707;45.384;9.300;2022-08-01T05:02:06;2.40;;;1.55;;
53797;SDS011;39707;45.384;9.300;2022-08-01T05:04:33;1.02;;;0.88;;
53797;SDS011;39707;45.384;9.300;2022-08-01T05:06:59;3.42;;;1.23;;
53797;SDS011;39707;45.384;9.300;2022-08-01T05:09:25;2.53;;;1.50;;
53797;SDS011;39707;45.384;9.300;2022-08-01T05:11:51;3.60;;;1.15;;
53797;SDS011;39707;45.384;9.300;2022-08-01T05:14:17;3.30;;;1.85;;
53797;SDS011;39707;45.384;9.300;2022-08-01T05:16:44;2.78;;;1.30;;
53797;SDS011;39707;45.384;9.300;2022-08-01T05:19:10;2.88;;;1.75;;
53797;SDS011;39707;45.384;9.300;2022-08-01T05:21:37;7.22;;;1.67;;
53797;SDS011;39707;45.384;9.300;2022-08-01T05:24:04;2.35;;;0.90;;
53797;SDS011;39707;45.384;9.300;2022-08-01T05:26:30;1.75;;;1.23;;
53797;SDS011;39707;45.384;9.300;2022-08-01T05:28:56;0.88;;;0.88;;
53797;SDS011;39707;45.384;9.300;2022-08-01T05:31:22;1.75;;;0.80;;
53797;SDS011;39707;45.384;9.300;2022-08-01T05:33:48;1.65;;;1.35;;
53797;SDS011;39707;45.384;9.300;2022-08-01T05:36:14;2.03;;;0.95;;
53797;SDS011;39707;45.384;9.300;2022-08-01T05:38:40;1.38;;;0.98;;
53797;SDS011;39707;45.384;9.300;2022-08-01T05:41:06;2.10;;;1.30;;
53797;SDS011;39707;45.384;9.300;2022-08-01T05:43:32;1.55;;;1.45;;
53797;SDS011;39707;45.384;9.300;2022-08-01T05:45:58;4.75;;;1.40;;
53797;SDS011;39707;45.384;9.300;2022-08-01T05:48:25;9.82;;;1.23;;
53797;SDS011;39707;45.384;9.300;2022-08-01T05:50:51;10.18;;;1.33;;
53797;SDS011;39707;45.384;9.300;2022-08-01T05:53:17;1.17;;;1.05;;
53797;SDS011;39707;45.384;9.300;2022-08-01T05:55:43;1.95;;;1.05;;
53797;SDS011;39707;45.384;9.300;2022-08-01T05:58:09;2.15;;;1.25;;
53797;SDS011;39707;45.384;9.300;2022-08-01T06:00:35;2.75;;;0.90;;
53797;SDS011;39707;45.384;9.300;2022-08-01T06:03:01;1.88;;;1.10;;
53797;SDS011;39707;45.384;9.300;2022-08-01T06:05:27;1.60;;;1.13;;
53797;SDS011;39707;45.384;9.300;2022-08-01T06:07:53;4.25;;;1.33;;
53797;SDS011;39707;45.384;9.300;2022-08-01T06:10:19;1.40;;;1.20;;
53797;SDS011;39707;45.384;9.300;2022-08-01T06:12:45;0.73;;;0.73;;
53797;SDS011;39707;45.384;9.300;2022-08-01T06:15:11;0.68;;;0.68;;
53797;SDS011;39707;45.384;9.300;2022-08-01T06:17:37;3.53;;;1.15;;
53797;SDS011;39707;45.384;9.300;2022-08-01T06:20:04;1.70;;;1.25;;
53797;SDS011;39707;45.384;9.300;2022-08-01T06:22:31;1.42;;;1.23;;
53797;SDS011;39707;45.384;9.300;2022-08-01T06:24:57;1.25;;;1.15;;
53797;SDS011;39707;45.384;9.300;2022-08-01T06:27:23;2.42;;;0.95;;
53797;SDS011;39707;45.384;9.300;2022-08-01T06:29:52;1.08;;;1.00;;
53797;SDS011;39707;45.384;9.300;2022-08-01T06:32:24;8.27;;;1.00;;
53797;SDS011;39707;45.384;9.300;2022-08-01T06:34:51;2.42;;;1.50;;
53797;SDS011;39707;45.384;9.300;2022-08-01T06:37:17;4.00;;;0.93;;
53797;SDS011;39707;45.384;9.300;2022-08-01T06:39:43;1.05;;;0.85;;
53797;SDS011;39707;45.384;9.300;2022-08-01T06:42:09;2.55;;;0.82;;
53797;SDS011;39707;45.384;9.300;2022-08-01T06:44:35;0.77;;;0.77;;
53797;SDS011;39707;45.384;9.300;2022-08-01T06:47:01;3.00;;;1.17;;
53797;SDS011;39707;45.384;9.300;2022-08-01T06:49:27;0.73;;;0.68;;
53797;SDS011;39707;45.384;9.300;2022-08-01T06:51:53;2.67;;;1.00;;
53797;SDS011;39707;45.384;9.300;2022-08-01T06:54:20;1.27;;;0.93;;
53797;SDS011;39707;45.384;9.300;2022-08-01T06:56:46;1.23;;;1.10;;
53797;SDS011;39707;45.384;9.300;2022-08-01T06:59:12;1.05;;;0.90;;
53797;SDS011;39707;45.384;9.300;2022-08-01T07:01:38;1.30;;;1.20;;
53797;SDS011;39707;45.384;9.300;2022-08-01T07:04:04;2.58;;;1.23;;
53797;SDS011;39707;45.384;9.300;2022-08-01T07:06:30;1.10;;;1.00;;
53797;SDS011;39707;45.384;9.300;2022-08-01T07:08:56;2.42;;;1.63;;
53797;SDS011;39707;45.384;9.300;2022-08-01T07:11:23;8.90;;;1.60;;
53797;SDS011;39707;45.384;9.300;2022-08-01T07:13:49;3.13;;;1.40;;
53797;SDS011;39707;45.384;9.300;2022-08-01T07:16:15;1.48;;;1.10;;
53797;SDS011;39707;45.384;9.300;2022-08-01T07:18:42;3.03;;;1.53;;
53797;SDS011;39707;45.384;9.300;2022-08-01T07:21:08;3.15;;;1.42;;
53797;SDS011;39707;45.384;9.300;2022-08-01T07:23:34;2.25;;;1.15;;
53797;SDS011;39707;45.384;9.300;2022-08-01T07:26:00;2.15;;;1.70;;
53797;SDS011;39707;45.384;9.300;2022-08-01T07:28:27;1.23;;;1.05;;
53797;SDS011;39707;45.384;9.300;2022-08-01T07:30:53;2.30;;;1.70;;
53797;SDS011;39707;45.384;9.300;2022-08-01T07:33:19;3.70;;;2.28;;
53797;SDS011;39707;45.384;9.300;2022-08-01T07:35:45;2.90;;;1.73;;
53797;SDS011;39707;45.384;9.300;2022-08-01T07:38:11;3.03;;;1.95;;
53797;SDS011;39707;45.384;9.300;2022-08-01T07:40:37;2.17;;;1.75;;
53797;SDS011;39707;45.384;9.300;2022-08-01T07:43:03;2.65;;;2.08;;
53797;SDS011;39707;45.384;9.300;2022-08-01T07:45:29;4.75;;;1.67;;
53797;SDS011;39707;45.384;9.300;2022-08-01T07:47:56;3.47;;;2.20;;
53797;SDS011;39707;45.384;9.300;2022-08-01T07:50:22;3.85;;;2.15;;
53797;SDS011;39707;45.384;9.300;2022-08-01T07:52:48;2.67;;;2.05;;
53797;SDS011;39707;45.384;9.300;2022-08-01T07:55:14;3.55;;;1.70;;
53797;SDS011;39707;45.384;9.300;2022-08-01T07:57:40;2.28;;;1.60;;
53797;SDS011;39707;45.384;9.300;2022-08-01T08:00:06;3.75;;;2.60;;
53797;SDS011;39707;45.384;9.300;2022-08-01T08:02:33;5.63;;;2.15;;
53797;SDS011;39707;45.384;9.300;2022-08-01T08:05:00;4.50;;;2.40;;
53797;SDS011;39707;45.384;9.300;2022-08-01T08:07:25;5.18;;;3.13;;
53797;SDS011;39707;45.384;9.300;2022-08-01T08:09:51;2.72;;;2.25;;
53797;SDS011;39707;45.384;9.300;2022-08-01T08:12:17;3.95;;;1.83;;
53797;SDS011;39707;45.384;9.300;2022-08-01T08:14:43;7.35;;;2.35;;
53797;SDS011;39707;45.384;9.300;2022-08-01T08:17:09;4.97;;;1.95;;
53797;SDS011;39707;45.384;9.300;2022-08-01T08:19:35;4.63;;;2.33;;
53797;SDS011;39707;45.384;9.300;2022-08-01T08:22:03;6.97;;;2.85;;
53797;SDS011;39707;45.384;9.300;2022-08-01T08:24:29;4.53;;;2.28;;
53797;SDS011;39707;45.384;9.300;2022-08-01T08:26:58;4.13;;;2.60;;
53797;SDS011;39707;45.384;9.300;2022-08-01T08:29:24;7.80;;;2.78;;
53797;SDS011;39707;45.384;9.300;2022-08-01T08:31:54;9.75;;;3.17;;
53797;SDS011;39707;45.384;9.300;2022-08-01T08:34:20;4.07;;;2.92;;
53797;SDS011;39707;45.384;9.300;2022-08-01T08:36:46;18.73;;;3.83;;
53797;SDS011;39707;45.384;9.300;2022-08-01T08:39:12;11.07;;;3.42;;
53797;SDS011;39707;45.384;9.300;2022-08-01T08:41:38;9.65;;;4.15;;
53797;SDS011;39707;45.384;9.300;2022-08-01T08:44:05;4.55;;;2.85;;
53797;SDS011;39707;45.384;9.300;2022-08-01T08:46:31;3.92;;;2.80;;
53797;SDS011;39707;45.384;9.300;2022-08-01T08:49:01;8.82;;;2.67;;
53797;SDS011;39707;45.384;9.300;2022-08-01T08:53:54;6.15;;;3.55;;
53797;SDS011;39707;45.384;9.300;2022-08-01T08:56:21;7.05;;;3.33;;
53797;SDS011;39707;45.384;9.300;2022-08-01T08:58:48;6.00;;;3.10;;
53797;SDS011;39707;45.384;9.300;2022-08-01T09:01:16;8.85;;;3.38;;
53797;SDS011;39707;45.384;9.300;2022-08-01T09:03:42;3.85;;;2.72;;
53797;SDS011;39707;45.384;9.300;2022-08-01T09:06:09;7.18;;;2.70;;
53797;SDS011;39707;45.384;9.300;2022-08-01T09:08:35;7.88;;;3.33;;
53797;SDS011;39707;45.384;9.300;2022-08-01T09:11:01;6.70;;;3.60;;
53797;SDS011;39707;45.384;9.300;2022-08-01T09:13:27;7.10;;;3.45;;
53797;SDS011;39707;45.384;9.300;2022-08-01T09:15:54;5.63;;;3.58;;
53797;SDS011;39707;45.384;9.300;2022-08-01T09:21:15;5.93;;;4.00;;
53797;SDS011;39707;45.384;9.300;2022-08-01T09:23:42;3.42;;;3.08;;
53797;SDS011;39707;45.384;9.300;2022-08-01T09:26:09;3.45;;;2.67;;
53797;SDS011;39707;45.384;9.300;2022-08-01T09:28:36;8.60;;;4.10;;
53797;SDS011;39707;45.384;9.300;2022-08-01T09:31:06;4.60;;;3.03;;
53797;SDS011;39707;45.384;9.300;2022-08-01T09:33:48;3.05;;;2.72;;
53797;SDS011;39707;45.384;9.300;2022-08-01T09:36:14;6.70;;;3.13;;
53797;SDS011;39707;45.384;9.300;2022-08-01T09:38:40;6.10;;;3.47;;
53797;SDS011;39707;45.384;9.300;2022-08-01T09:41:06;8.15;;;3.22;;
53797;SDS011;39707;45.384;9.300;2022-08-01T09:43:32;6.13;;;3.13;;
53797;SDS011;39707;45.384;9.300;2022-08-01T09:45:59;7.83;;;4.30;;
53797;SDS011;39707;45.384;9.300;2022-08-01T09:48:25;6.70;;;3.17;;
53797;SDS011;39707;45.384;9.300;2022-08-01T09:50:52;4.07;;;2.70;;
53797;SDS011;39707;45.384;9.300;2022-08-01T09:53:18;3.70;;;2.72;;
53797;SDS011;39707;45.384;9.300;2022-08-01T09:55:45;10.85;;;2.95;;
53797;SDS011;39707;45.384;9.300;2022-08-01T09:58:11;7.18;;;3.20;;
53797;SDS011;39707;45.384;9.300;2022-08-01T10:00:38;7.10;;;1.83;;
53797;SDS011;39707;45.384;9.300;2022-08-01T10:03:20;6.65;;;3.15;;
53797;SDS011;39707;45.384;9.300;2022-08-01T10:05:47;5.68;;;2.35;;
53797;SDS011;39707;45.384;9.300;2022-08-01T10:08:13;4.25;;;2.10;;
53797;SDS011;39707;45.384;9.300;2022-08-01T10:10:39;5.40;;;1.45;;
53797;SDS011;39707;45.384;9.300;2022-08-01T10:13:05;4.20;;;1.95;;
53797;SDS011;39707;45.384;9.300;2022-08-01T10:15:31;6.45;;;2.00;;
53797;SDS011;39707;45.384;9.300;2022-08-01T10:17:59;4.32;;;1.33;;
53797;SDS011;39707;45.384;9.300;2022-08-01T10:20:28;2.85;;;1.75;;
53797;SDS011;39707;45.384;9.300;2022-08-01T10:22:55;5.90;;;1.60;;
53797;SDS011;39707;45.384;9.300;2022-08-01T10:25:21;2.47;;;1.25;;
53797;SDS011;39707;45.384;9.300;2022-08-01T10:27:49;3.60;;;1.83;;
53797;SDS011;39707;45.384;9.300;2022-08-01T10:30:16;4.05;;;1.67;;
53797;SDS011;39707;45.384;9.300;2022-08-01T10:32:43;5.77;;;1.57;;
53797;SDS011;39707;45.384;9.300;2022-08-01T10:35:12;13.27;;;2.08;;
53797;SDS011;39707;45.384;9.300;2022-08-01T10:37:42;4.10;;;1.80;;
53797;SDS011;39707;45.384;9.300;2022-08-01T10:40:08;4.75;;;2.17;;
53797;SDS011;39707;45.384;9.300;2022-08-01T10:42:36;8.20;;;1.67;;
53797;SDS011;39707;45.384;9.300;2022-08-01T10:45:04;2.58;;;0.93;;
53797;SDS011;39707;45.384;9.300;2022-08-01T10:47:38;6.47;;;1.42;;
53797;SDS011;39707;45.384;9.300;2022-08-01T10:52:38;2.45;;;1.45;;
53797;SDS011;39707;45.384;9.300;2022-08-01T10:55:05;3.70;;;1.02;;
53797;SDS011;39707;45.384;9.300;2022-08-01T10:57:47;9.75;;;1.38;;
53797;SDS011;39707;45.384;9.300;2022-08-01T11:00:19;3.10;;;1.63;;
53797;SDS011;39707;45.384;9.300;2022-08-01T11:02:58;5.45;;;1.30;;
53797;SDS011;39707;45.384;9.300;2022-08-01T11:05:26;3.22;;;1.30;;
53797;SDS011;39707;45.384;9.300;2022-08-01T11:12:48;13.52;;;2.22;;
53797;SDS011;39707;45.384;9.300;2022-08-01T11:17:43;4.90;;;1.17;;
53797;SDS011;39707;45.384;9.300;2022-08-01T11:20:16;2.15;;;1.17;;
53797;SDS011;39707;45.384;9.300;2022-08-01T11:25:23;2.50;;;1.40;;
53797;SDS011;39707;45.384;9.300;2022-08-01T11:27:59;1.38;;;0.85;;
53797;SDS011;39707;45.384;9.300;2022-08-01T11:30:35;2.10;;;1.10;;
53797;SDS011;39707;45.384;9.300;2022-08-01T11:33:01;2.45;;;0.88;;
53797;SDS011;39707;45.384;9.300;2022-08-01T11:35:27;2.90;;;1.42;;
53797;SDS011;39707;45.384;9.300;2022-08-01T11:37:54;0.70;;;0.70;;
53797;SDS011;39707;45.384;9.300;2022-08-01T11:42:47;1.00;;;0.70;;
53797;SDS011;39707;45.384;9.300;2022-08-01T11:45:14;2.08;;;0.82;;
53797;SDS011;39707;45.384;9.300;2022-08-01T11:47:47;3.08;;;0.95;;
53797;SDS011;39707;45.384;9.300;2022-08-01T11:52:58;0.40;;;0.40;;
53797;SDS011;39707;45.384;9.300;2022-08-01T11:55:24;0.65;;;0.60;;
53797;SDS011;39707;45.384;9.300;2022-08-01T11:57:58;0.80;;;0.60;;
53797;SDS011;39707;45.384;9.300;2022-08-01T12:00:24;1.00;;;0.77;;
53797;SDS011;39707;45.384;9.300;2022-08-01T12:02:57;3.28;;;1.02;;
53797;SDS011;39707;45.384;9.300;2022-08-01T12:05:24;1.77;;;0.57;;
53797;SDS011;39707;45.384;9.300;2022-08-01T12:07:50;1.43;;;0.60;;
53797;SDS011;39707;45.384;9.300;2022-08-01T12:10:18;8.23;;;0.90;;
53797;SDS011;39707;45.384;9.300;2022-08-01T12:15:10;1.42;;;0.88;;
53797;SDS011;39707;45.384;9.300;2022-08-01T12:17:40;1.27;;;0.85;;
53797;SDS011;39707;45.384;9.300;2022-08-01T12:20:07;2.50;;;0.80;;
53797;SDS011;39707;45.384;9.300;2022-08-01T12:22:34;3.55;;;0.80;;
53797;SDS011;39707;45.384;9.300;2022-08-01T12:25:13;1.27;;;0.77;;
53797;SDS011;39707;45.384;9.300;2022-08-01T12:27:40;0.98;;;0.68;;
53797;SDS011;39707;45.384;9.300;2022-08-01T12:30:11;0.50;;;0.50;;
53797;SDS011;39707;45.384;9.300;2022-08-01T12:32:38;1.42;;;0.80;;
53797;SDS011;39707;45.384;9.300;2022-08-01T12:35:05;4.22;;;1.20;;
53797;SDS011;39707;45.384;9.300;2022-08-01T12:39:57;0.70;;;0.50;;
53797;SDS011;39707;45.384;9.300;2022-08-01T12:42:24;0.80;;;0.60;;
53797;SDS011;39707;45.384;9.300;2022-08-01T12:44:51;0.70;;;0.50;;
53797;SDS011;39707;45.384;9.300;2022-08-01T12:47:17;0.40;;;0.40;;
53797;SDS011;39707;45.384;9.300;2022-08-01T12:49:45;1.00;;;0.60;;
53797;SDS011;39707;45.384;9.300;2022-08-01T12:52:11;1.95;;;0.75;;
53797;SDS011;39707;45.384;9.300;2022-08-01T12:57:36;0.50;;;0.50;;
53797;SDS011;39707;45.384;9.300;2022-08-01T13:05:27;0.75;;;0.60;;
53797;SDS011;39707;45.384;9.300;2022-08-01T13:07:53;0.43;;;0.40;;
53797;SDS011;39707;45.384;9.300;2022-08-01T13:10:29;0.97;;;0.50;;
53797;SDS011;39707;45.384;9.300;2022-08-01T13:12:56;0.43;;;0.43;;
53797;SDS011;39707;45.384;9.300;2022-08-01T13:17:49;0.55;;;0.40;;
53797;SDS011;39707;45.384;9.300;2022-08-01T13:20:34;0.88;;;0.60;;
53797;SDS011;39707;45.384;9.300;2022-08-01T13:23:10;1.02;;;0.60;;
53797;SDS011;39707;45.384;9.300;2022-08-01T13:25:46;6.68;;;0.77;;
53797;SDS011;39707;45.384;9.300;2022-08-01T13:28:16;8.57;;;0.85;;
53797;SDS011;39707;45.384;9.300;2022-08-01T13:30:50;0.70;;;0.50;;
53797;SDS011;39707;45.384;9.300;2022-08-01T13:33:16;0.52;;;0.50;;
53797;SDS011;39707;45.384;9.300;2022-08-01T13:35:42;5.85;;;0.60;;
53797;SDS011;39707;45.384;9.300;2022-08-01T13:38:08;2.58;;;1.00;;
53797;SDS011;39707;45.384;9.300;2022-08-01T13:40:34;0.40;;;0.40;;
53797;SDS011;39707;45.384;9.300;2022-08-01T13:43:00;1.05;;;0.60;;
53797;SDS011;39707;45.384;9.300;2022-08-01T13:45:26;0.52;;;0.40;;
53797;SDS011;39707;45.384;9.300;2022-08-01T13:47:52;1.10;;;0.65;;
53797;SDS011;39707;45.384;9.300;2022-08-01T13:50:18;1.25;;;0.55;;
53797;SDS011;39707;45.384;9.300;2022-08-01T13:52:44;0.68;;;0.50;;
53797;SDS011;39707;45.384;9.300;2022-08-01T13:55:10;1.70;;;0.60;;
53797;SDS011;39707;45.384;9.300;2022-08-01T13:57:36;3.00;;;1.00;;
53797;SDS011;39707;45.384;9.300;2022-08-01T14:00:08;1.10;;;0.60;;
53797;SDS011;39707;45.384;9.300;2022-08-01T14:02:34;5.30;;;0.88;;
53797;SDS011;39707;45.384;9.300;2022-08-01T14:05:00;0.80;;;0.60;;
53797;SDS011;39707;45.384;9.300;2022-08-01T14:07:27;0.80;;;0.70;;
53797;SDS011;39707;45.384;9.300;2022-08-01T14:09:53;8.23;;;0.85;;
53797;SDS011;39707;45.384;9.300;2022-08-01T14:12:19;0.80;;;0.73;;
53797;SDS011;39707;45.384;9.300;2022-08-01T14:14:45;1.25;;;0.70;;
53797;SDS011;39707;45.384;9.300;2022-08-01T14:17:11;2.10;;;0.70;;
53797;SDS011;39707;45.384;9.300;2022-08-01T14:19:37;0.70;;;0.60;;
53797;SDS011;39707;45.384;9.300;2022-08-01T14:22:03;1.20;;;0.55;;
53797;SDS011;39707;45.384;9.300;2022-08-01T14:24:29;1.30;;;0.68;;
53797;SDS011;39707;45.384;9.300;2022-08-01T14:26:55;0.88;;;0.65;;
53797;SDS011;39707;45.384;9.300;2022-08-01T14:29:21;0.47;;;0.47;;
53797;SDS011;39707;45.384;9.300;2022-08-01T14:31:47;0.63;;;0.63;;
53797;SDS011;39707;45.384;9.300;2022-08-01T14:34:13;1.48;;;1.30;;
53797;SDS011;39707;45.384;9.300;2022-08-01T14:36:40;0.88;;;0.50;;
53797;SDS011;39707;45.384;9.300;2022-08-01T14:39:06;0.90;;;0.70;;
53797;SDS011;39707;45.384;9.300;2022-08-01T14:41:32;1.02;;;0.60;;
53797;SDS011;39707;45.384;9.300;2022-08-01T14:43:58;0.88;;;0.80;;
53797;SDS011;39707;45.384;9.300;2022-08-01T14:46:24;0.83;;;0.60;;
53797;SDS011;39707;45.384;9.300;2022-08-01T14:48:50;7.27;;;0.93;;
53797;SDS011;39707;45.384;9.300;2022-08-01T14:51:16;2.03;;;1.02;;
53797;SDS011;39707;45.384;9.300;2022-08-01T14:53:42;11.80;;;0.73;;
53797;SDS011;39707;45.384;9.300;2022-08-01T14:56:08;1.50;;;0.40;;
53797;SDS011;39707;45.384;9.300;2022-08-01T14:58:34;1.15;;;0.93;;
53797;SDS011;39707;45.384;9.300;2022-08-01T15:01:01;0.68;;;0.50;;
53797;SDS011;39707;45.384;9.300;2022-08-01T15:03:27;1.20;;;0.90;;
53797;SDS011;39707;45.384;9.300;2022-08-01T15:05:53;2.13;;;0.60;;
53797;SDS011;39707;45.384;9.300;2022-08-01T15:08:19;0.90;;;0.60;;
53797;SDS011;39707;45.384;9.300;2022-08-01T15:10:45;2.33;;;0.70;;
53797;SDS011;39707;45.384;9.300;2022-08-01T15:13:11;0.40;;;0.40;;
53797;SDS011;39707;45.384;9.300;2022-08-01T15:15:37;0.60;;;0.57;;
53797;SDS011;39707;45.384;9.300;2022-08-01T15:18:03;1.85;;;0.43;;
53797;SDS011;39707;45.384;9.300;2022-08-01T15:20:29;0.23;;;0.23;;
53797;SDS011;39707;45.384;9.300;2022-08-01T15:22:56;0.50;;;0.50;;
53797;SDS011;39707;45.384;9.300;2022-08-01T15:25:22;0.50;;;0.50;;
53797;SDS011;39707;45.384;9.300;2022-08-01T15:27:48;2.65;;;0.60;;
53797;SDS011;39707;45.384;9.300;2022-08-01T15:30:14;0.38;;;0.38;;
53797;SDS011;39707;45.384;9.300;2022-08-01T15:32:40;0.40;;;0.30;;
53797;SDS011;39707;45.384;9.300;2022-08-01T15:35:06;6.13;;;0.50;;
53797;SDS011;39707;45.384;9.300;2022-08-01T15:37:35;1.05;;;0.63;;
53797;SDS011;39707;45.384;9.300;2022-08-01T15:40:00;0.52;;;0.40;;
53797;SDS011;39707;45.384;9.300;2022-08-01T15:42:26;9.27;;;0.60;;
53797;SDS011;39707;45.384;9.300;2022-08-01T15:44:53;0.43;;;0.40;;
53797;SDS011;39707;45.384;9.300;2022-08-01T15:47:19;0.50;;;0.20;;
53797;SDS011;39707;45.384;9.300;2022-08-01T15:49:45;0.80;;;0.40;;
53797;SDS011;39707;45.384;9.300;2022-08-01T15:52:11;0.85;;;0.30;;
53797;SDS011;39707;45.384;9.300;2022-08-01T15:54:37;1.25;;;0.40;;
53797;SDS011;39707;45.384;9.300;2022-08-01T15:57:05;0.30;;;0.30;;